Latest Weather Observations for Noarlunga

IDS60901

Issued at 5:11 pm CDT Monday 18 February 2019 (issued every 10 minutes, with the page automatically refreshed every 10 minutes)

About weather observations | Map of Adelaide area stations | Latest observations for Adelaide area | Other Formats
Station Details ID: 023885 Name: NOARLUNGA Lat: -35.16 Lon: 138.51 Height: 55.0 m
Data from the previous 72 hours. | See also: Recent months at Noarlunga
Date/Time
CDT
Temp
°C
App
Temp
°C
Dew
Point
°C
Rel
Hum
%
Delta-T
°C
Wind Press
QNH
hPa
Press
MSL
hPa
Rain since
9am
mm
Dir  Spd
km/h
Gust
km/h
Spd
kts
Gust
kts
18/05:00pm 22.0 17.4 9.5 45 6.7 SW 24 35 13 19 - - 0.0
18/04:30pm 22.5 18.2 9.3 43 7.1 SW 22 35 12 19 - - 0.0
18/04:00pm 21.7 16.7 9.6 46 6.5 SW 26 37 14 20 - - 0.0
18/03:30pm 21.9 16.8 10.7 49 6.2 WSW 28 48 15 26 - - 0.0
18/03:25pm 22.4 17.5 11.2 49 6.2 WSW 28 48 15 26 - - 0.0
18/03:00pm 21.8 17.5 10.6 49 6.2 SW 24 37 13 20 - - 0.0
18/02:30pm 21.7 16.9 10.2 48 6.3 SW 26 37 14 20 - - 0.0
18/02:00pm 21.6 17.6 10.4 49 6.1 SW 22 33 12 18 - - 0.0
18/01:30pm 22.2 18.1 10.0 46 6.6 SW 22 35 12 19 - - 0.0
18/01:00pm 21.8 18.0 9.7 46 6.5 SW 20 33 11 18 - - 0.0
18/12:30pm 21.8 17.3 10.0 47 6.4 WSW 24 33 13 18 - - 0.0
18/12:00pm 21.9 17.9 10.4 48 6.3 SW 22 33 12 18 - - 0.0
18/11:30am 21.8 18.0 11.2 51 5.9 SW 22 33 12 18 - - 0.0
18/11:00am 20.7 17.3 11.1 54 5.3 SW 20 32 11 17 - - 0.0
18/10:30am 21.2 19.8 11.0 52 5.6 S 9 19 5 10 - - 0.0
18/10:00am 19.2 17.2 11.5 61 4.2 S 13 20 7 11 - - 0.0
18/09:30am 19.1 17.2 11.7 62 4.1 S 13 20 7 11 - - 0.0
18/09:00am 18.9 17.0 11.9 64 3.9 S 13 28 7 15 - - 0.0
18/08:30am 18.1 16.0 12.3 69 3.2 SSE 15 20 8 11 - - 0.0
18/08:00am 18.3 16.7 12.7 70 3.1 S 13 20 7 11 - - 0.0
18/07:30am 18.3 15.5 12.5 69 3.2 SE 19 30 10 16 - - 0.0
18/07:00am 18.4 15.1 12.8 70 3.1 SSE 22 33 12 18 - - 0.0
18/06:30am 18.7 15.6 13.3 71 3.1 SSE 22 33 12 18 - - 0.0
18/06:00am 19.0 16.9 13.6 71 3.1 SE 17 28 9 15 - - 0.0
18/05:30am 19.0 16.4 13.8 72 3.0 SE 20 28 11 15 - - 0.0
18/05:00am 19.3 16.9 13.7 70 3.2 SE 19 28 10 15 - - 0.0
18/04:30am 19.4 16.2 14.2 72 3.0 SE 24 33 13 18 - - 0.0
18/04:00am 19.6 16.8 14.2 71 3.1 SE 22 32 12 17 - - 0.0
18/03:30am 19.6 17.3 14.2 71 3.1 SSE 19 28 10 15 - - 0.0
18/03:00am 20.1 18.5 14.0 68 3.5 SSE 15 22 8 12 - - 0.0
18/02:30am 21.1 19.5 12.8 59 4.7 SSE 13 22 7 12 - - 0.0
18/02:00am 22.5 19.0 10.9 48 6.4 ESE 20 35 11 19 - - 0.0
18/01:30am 23.0 19.6 11.1 47 6.6 SE 20 32 11 17 - - 0.0
18/01:00am 25.4 22.1 4.5 26 10.5 SE 11 22 6 12 - - 0.0
18/12:30am 26.2 23.7 4.6 25 10.9 ESE 7 11 4 6 - - 0.0
18/12:00am 26.8 24.2 4.0 23 11.5 E 7 15 4 8 - - 0.0
 
Date/Time
CDT
Temp
°C
App
Temp
°C
Dew
Point
°C
Rel
Hum
%
Delta-T
°C
Wind Press
QNH
hPa
Press
MSL
hPa
Rain since
9am
mm
Dir  Spd
km/h
Gust
km/h
Spd
kts
Gust
kts
17/11:30pm 26.4 23.1 4.8 25 11.0 E 11 15 6 8 - - 0.0
17/11:00pm 26.8 23.4 4.0 23 11.5 ESE 11 15 6 8 - - 0.0
17/10:30pm 27.1 23.2 3.6 22 11.7 E 13 19 7 10 - - 0.0
17/10:00pm 27.3 24.1 3.1 21 12.0 ESE 9 13 5 7 - - 0.0
17/09:30pm 27.0 24.6 4.1 23 11.5 ESE 6 11 3 6 - - 0.0
17/09:00pm 26.7 25.2 6.7 28 10.5 E 4 6 2 3 - - 0.0
17/08:30pm 28.1 26.3 3.7 21 12.3 E 2 4 1 2 - - 0.0
17/08:00pm 28.4 25.8 3.3 20 12.6 ESE 6 9 3 5 - - 0.0
17/07:30pm 28.7 26.7 4.2 21 12.5 SE 4 6 2 3 - - 0.0
17/07:00pm 29.1 27.0 3.9 20 12.8 SE 4 6 2 3 - - 0.0
17/06:30pm 29.5 26.6 2.7 18 13.4 WSW 7 11 4 6 - - 0.0
17/06:00pm 30.0 27.5 4.6 20 13.2 W 7 9 4 5 - - 0.0
17/05:30pm 30.0 27.9 6.0 22 12.7 W 6 7 3 4 - - 0.0
17/05:00pm 32.3 28.8 3.3 16 14.9 NW 11 19 6 10 - - 0.0
17/04:30pm 33.0 28.9 2.0 14 15.7 NNW 13 20 7 11 - - 0.0
17/04:00pm 32.8 28.8 2.8 15 15.3 NW 13 22 7 12 - - 0.0
17/03:30pm 32.1 28.0 2.2 15 15.1 NNW 13 19 7 10 - - 0.0
17/03:00pm 32.5 28.4 2.5 15 15.2 NNW 13 20 7 11 - - 0.0
17/02:30pm 31.7 27.2 1.9 15 14.9 NNW 15 24 8 13 - - 0.0
17/02:00pm 31.0 27.7 2.3 16 14.4 NW 9 15 5 8 - - 0.0
17/01:30pm 29.9 26.6 4.5 20 13.1 WNW 11 17 6 9 - - 0.0
17/01:00pm 30.9 27.8 1.3 15 14.6 NNE 7 13 4 7 - - 0.0
17/12:30pm 30.6 26.9 0.1 14 14.7 E 9 15 5 8 - - 0.0
17/12:00pm 29.8 26.2 0.4 15 14.1 E 9 13 5 7 - - 0.0
17/11:30am 28.5 24.0 -0.6 15 13.6 E 13 19 7 10 - - 0.0
17/11:00am 27.9 24.4 1.4 18 12.8 E 9 13 5 7 - - 0.0
17/10:30am 26.6 21.8 0.4 18 12.3 E 15 20 8 11 - - 0.0
17/10:00am 24.9 21.0 1.1 21 11.2 E 11 17 6 9 - - 0.0
17/09:30am 22.8 18.8 0.6 23 10.2 ESE 11 13 6 7 - - 0.0
17/09:00am 21.7 19.7 2.4 28 9.1 ESE 2 4 1 2 - - 0.0
17/08:30am 20.7 18.6 2.0 29 8.7 ESE 2 4 1 2 - - 0.0
17/08:00am 20.3 17.4 1.7 29 8.5 ESE 6 9 3 5 - - 0.0
17/07:30am 18.9 17.1 1.4 31 7.9 CALM 0 2 0 1 - - 0.0
17/07:00am 19.1 17.1 0.2 28 8.3 CALM 0 4 0 2 - - 0.0
17/06:30am 18.3 16.1 0.9 31 7.7 E 2 4 1 2 - - 0.0
17/06:00am 18.2 15.1 -0.1 29 8.0 E 6 7 3 4 - - 0.0
17/05:30am 18.8 16.0 -0.6 27 8.4 E 4 7 2 4 - - 0.0
17/05:00am 18.3 15.5 -0.5 28 8.1 E 4 6 2 3 - - 0.0
17/04:30am 18.4 16.1 0.1 29 8.0 E 2 4 1 2 - - 0.0
17/04:00am 19.4 17.3 -0.6 26 8.7 CALM 0 2 0 1 - - 0.0
17/03:30am 19.9 16.6 -0.1 26 8.8 E 7 13 4 7 - - 0.0
17/03:00am 19.7 16.5 0.7 28 8.5 SW 7 11 4 6 - - 0.0
17/02:30am 21.4 18.2 -0.6 23 9.7 E 6 13 3 7 - - 0.0
17/02:00am 20.9 17.7 -0.4 24 9.4 ENE 6 9 3 5 - - 0.0
17/01:30am 20.6 17.5 0.4 26 9.1 E 6 9 3 5 - - 0.0
17/01:00am 20.1 17.3 2.0 30 8.3 E 6 11 3 6 - - 0.0
17/12:30am 20.5 16.6 3.3 32 8.2 ENE 13 20 7 11 - - 0.0
17/12:00am 20.8 17.2 3.1 31 8.4 ESE 11 17 6 9 - - 0.0
 
Date/Time
CDT
Temp
°C
App
Temp
°C
Dew
Point
°C
Rel
Hum
%
Delta-T
°C
Wind Press
QNH
hPa
Press
MSL
hPa
Rain since
9am
mm
Dir  Spd
km/h
Gust
km/h
Spd
kts
Gust
kts
16/11:30pm 21.6 17.8 3.8 31 8.6 ESE 13 22 7 12 - - 0.0
16/11:00pm 21.5 18.3 5.0 34 8.2 E 11 17 6 9 - - 0.0
16/10:30pm 21.8 19.4 6.9 38 7.6 E 9 15 5 8 - - 0.0
16/10:00pm 22.2 19.3 8.0 40 7.5 E 13 19 7 10 - - 0.0
16/09:30pm 22.5 19.8 10.3 46 6.7 ESE 15 20 8 11 - - 0.0
16/09:00pm 23.3 21.2 11.0 46 6.9 ESE 13 17 7 9 - - 0.0
16/08:30pm 24.2 22.5 11.2 44 7.3 ESE 11 19 6 10 - - 0.0
16/08:00pm 25.0 24.2 6.7 31 9.5 CALM 0 4 0 2 - - 0.0
16/07:30pm 26.1 23.5 3.4 23 11.2 SSW 6 9 3 5 - - 0.0
16/07:00pm 26.3 22.8 3.5 23 11.3 SW 11 17 6 9 - - 0.0
16/06:30pm 26.3 23.1 2.9 22 11.5 SW 9 15 5 8 - - 0.0
16/06:00pm 26.1 23.5 7.7 31 9.8 SW 11 17 6 9 - - 0.0
16/05:30pm 26.1 23.5 7.7 31 9.8 SW 11 17 6 9 - - 0.0
16/05:00pm 26.6 23.9 9.0 33 9.6 SW 13 17 7 9 - - 0.0
16/04:30pm 27.4 24.6 6.8 27 10.9 W 11 15 6 8 - - 0.0
16/04:00pm 27.3 25.3 7.2 28 10.7 W 7 11 4 6 - - 0.0
16/03:30pm 27.2 24.4 7.1 28 10.7 WSW 11 17 6 9 - - 0.0
16/03:00pm 27.7 25.2 6.5 26 11.2 W 9 15 5 8 - - 0.0
16/02:30pm 26.6 24.3 7.6 30 10.2 W 9 15 5 8 - - 0.0
16/02:00pm 27.0 24.5 8.0 30 10.3 W 11 20 6 11 - - 0.0
16/01:30pm 26.0 23.4 7.6 31 9.8 WNW 11 19 6 10 - - 0.0
16/01:00pm 25.2 22.5 9.1 36 8.8 W 13 17 7 9 - - 0.0
16/12:30pm 26.0 24.4 11.4 40 8.3 WNW 11 17 6 9 - - 0.0
16/12:00pm 25.1 24.2 11.3 42 7.8 NW 7 13 4 7 - - 0.0
16/11:30am 24.7 24.2 12.6 47 7.0 W 7 11 4 6 - - 0.0
16/11:00am 24.4 23.4 12.4 47 6.9 W 9 15 5 8 - - 0.0
16/10:30am 24.1 23.5 10.4 42 7.6 WSW 4 9 2 5 - - 0.0
16/10:00am 23.7 22.5 9.7 41 7.6 NNE 6 7 3 4 - - 0.0
16/09:30am 22.2 21.6 10.4 47 6.5 SE 4 7 2 4 - - 0.0
16/09:00am 22.1 21.1 8.9 43 7.0 E 4 6 2 3 - - 0.0
16/08:30am 19.8 18.5 10.0 53 5.3 ESE 7 11 4 6 - - 0.0
16/08:00am 18.0 16.9 9.9 59 4.3 ENE 6 11 3 6 - - 0.0
16/07:30am 16.4 15.6 10.9 70 2.9 E 6 9 3 5 - - 0.0
16/07:00am 15.4 13.3 11.2 76 2.3 E 13 19 7 10 - - 0.0
16/06:30am 15.6 12.4 11.4 76 2.3 E 19 30 10 16 - - 0.0
16/06:00am 15.4 12.2 11.4 77 2.2 E 19 26 10 14 - - 0.0
16/05:30am 15.7 12.5 11.3 75 2.4 E 19 30 10 16 - - 0.0
16/05:00am 16.3 14.0 10.6 69 3.0 E 13 17 7 9 - - 0.0
16/04:30am 16.6 14.4 10.7 68 3.2 ENE 13 19 7 10 - - 0.0
16/04:00am 16.7 14.2 11.0 69 3.1 ENE 15 20 8 11 - - 0.0
16/03:30am 16.6 14.5 11.1 70 3.0 ENE 13 19 7 10 - - 0.0
16/03:00am 16.6 14.5 11.3 71 2.9 ENE 13 22 7 12 - - 0.0
16/02:30am 16.5 14.5 11.6 73 2.7 E 13 24 7 13 - - 0.0
16/02:00am 16.4 14.1 11.8 74 2.5 E 15 26 8 14 - - 0.0
16/01:30am 16.5 13.5 12.1 75 2.4 E 19 28 10 15 - - 0.0
16/01:00am 16.3 13.7 12.1 76 2.3 E 17 24 9 13 - - 0.0
16/12:30am 16.5 15.8 12.1 75 2.4 E 7 17 4 9 - - 0.0
16/12:00am 16.7 15.0 12.3 75 2.4 E 13 22 7 12 - - 0.0
 
Date/Time
CDT
Temp
°C
App
Temp
°C
Dew
Point
°C
Rel
Hum
%
Delta-T
°C
Wind Press
QNH
hPa
Press
MSL
hPa
Rain since
9am
mm
Dir  Spd
km/h
Gust
km/h
Spd
kts
Gust
kts
15/11:30pm 16.8 14.9 11.9 73 2.7 E 13 19 7 10 - - 0.0
15/11:00pm 17.1 14.1 11.8 71 2.9 ESE 19 28 10 15 - - 0.0
15/10:30pm 17.2 14.0 11.9 71 2.9 ESE 20 30 11 16 - - 0.0
15/10:00pm 17.6 13.5 11.6 68 3.3 ESE 24 35 13 19 - - 0.0
15/09:30pm 17.9 14.6 11.7 67 3.4 ESE 20 30 11 16 - - 0.0
15/09:00pm 18.4 15.1 11.7 65 3.7 ESE 20 30 11 16 - - 0.0
15/08:30pm 19.0 15.4 11.8 63 4.0 ESE 22 35 12 19 - - 0.0
15/08:00pm 20.1 16.5 11.8 59 4.6 ESE 22 33 12 18 - - 0.0
15/07:30pm 21.4 17.1 12.0 55 5.3 SE 26 35 14 19 - - 0.0
15/07:00pm 23.4 20.3 12.1 49 6.4 SE 20 28 11 15 - - 0.0
15/06:30pm 25.3 23.6 11.1 41 8.0 S 11 26 6 14 - - 0.0
15/06:00pm 26.0 23.0 6.1 28 10.3 SW 11 17 6 9 - - 0.0
15/05:30pm 26.2 23.1 7.3 30 10.0 SW 13 19 7 10 - - 0.0

Latest Capital City Observations: Canberra | Sydney | Melbourne | Brisbane | Adelaide | Perth | Hobart | Darwin

Other formats

Comma delimited format used in spreadsheet applications
http://www.bom.gov.au/fwo/IDS60901/IDS60901.94808.axf

JavaScript Object Notation format (JSON) in row-major order
http://www.bom.gov.au/fwo/IDS60901/IDS60901.94808.json

Data quality

Most of these data are generated automatically and are frequently updated. Quality checks on data are not normally performed. It is possible for incorrect values to appear. Refer to information at About Latest Weather Observations and please check the disclaimer before using these data.